createdAt,value
2019-03-26T00:02:30.027Z,8.00
2019-03-26T00:05:00.416Z,8.00
2019-03-26T00:07:30.711Z,8.00
2019-03-26T00:10:01.038Z,7.90
2019-03-26T00:12:31.389Z,7.90
2019-03-26T00:15:01.728Z,8.00
2019-03-26T00:17:32.079Z,8.00
2019-03-26T00:20:02.419Z,7.90
2019-03-26T00:22:32.757Z,7.90
2019-03-26T00:25:03.106Z,7.90
2019-03-26T00:27:33.438Z,7.90
2019-03-26T00:30:04.124Z,7.90
2019-03-26T00:32:34.531Z,7.90
2019-03-26T00:35:06.558Z,7.90
2019-03-26T00:37:36.895Z,7.90
2019-03-26T00:40:07.844Z,7.90
2019-03-26T00:42:38.173Z,7.90
2019-03-26T00:45:08.709Z,7.90
2019-03-26T00:47:39.052Z,7.90
2019-03-26T00:50:09.726Z,7.90
2019-03-26T00:52:40.066Z,7.90
2019-03-26T00:55:21.978Z,7.80
2019-03-26T00:57:42.528Z,7.80
2019-03-26T01:00:13.870Z,7.90
2019-03-26T01:02:44.202Z,7.80
2019-03-26T01:05:14.573Z,7.90
2019-03-26T01:07:44.916Z,7.90
2019-03-26T01:10:28.557Z,7.90
2019-03-26T01:12:58.959Z,7.90
2019-03-26T01:15:29.303Z,7.90
2019-03-26T01:17:59.639Z,7.90
2019-03-26T01:20:29.987Z,7.90
2019-03-26T01:23:00.317Z,7.90
2019-03-26T01:25:30.704Z,7.80
2019-03-26T01:28:01.038Z,7.80
2019-03-26T01:30:32.456Z,7.80
2019-03-26T01:33:02.789Z,7.80
2019-03-26T01:35:34.101Z,7.80
2019-03-26T01:38:04.440Z,7.80
2019-03-26T01:40:34.770Z,7.80
2019-03-26T01:43:05.167Z,7.80
2019-03-26T01:45:35.498Z,7.80
2019-03-26T01:48:05.975Z,7.80
2019-03-26T01:50:36.309Z,7.70
2019-03-26T01:53:06.638Z,7.60
2019-03-26T01:55:36.988Z,7.60
2019-03-26T01:58:07.337Z,7.70
2019-03-26T02:00:38.125Z,7.70
2019-03-26T02:03:08.458Z,7.60
2019-03-26T02:05:38.816Z,7.60
2019-03-26T02:08:09.147Z,7.50
2019-03-26T02:10:39.488Z,7.50
2019-03-26T02:13:09.826Z,7.50
2019-03-26T02:15:40.170Z,7.50
2019-03-26T02:18:10.501Z,7.50
2019-03-26T02:20:41.049Z,7.50
2019-03-26T02:23:11.388Z,7.50
2019-03-26T02:25:41.739Z,7.40
2019-03-26T02:28:12.071Z,7.30
2019-03-26T02:30:42.415Z,7.20
2019-03-26T02:33:13.059Z,7.00
2019-03-26T02:35:43.388Z,7.00
2019-03-26T02:38:13.731Z,7.00
2019-03-26T02:40:44.055Z,6.90
2019-03-26T02:43:14.406Z,6.90
2019-03-26T02:45:44.740Z,6.80
2019-03-26T02:48:15.138Z,6.70
2019-03-26T02:50:45.471Z,6.70
2019-03-26T02:53:15.809Z,6.60
2019-03-26T02:55:46.213Z,6.60
2019-03-26T02:58:16.797Z,6.50
2019-03-26T03:00:47.136Z,6.40
2019-03-26T03:03:17.467Z,6.20
2019-03-26T03:05:47.808Z,6.10
2019-03-26T03:08:18.134Z,6.00
2019-03-26T03:10:48.643Z,5.90
2019-03-26T03:13:18.980Z,5.80
2019-03-26T03:15:49.345Z,5.70
2019-03-26T03:18:19.666Z,5.60
2019-03-26T03:20:49.997Z,5.50
2019-03-26T03:23:20.328Z,5.40
2019-03-26T03:25:50.661Z,5.30
2019-03-26T03:28:20.996Z,5.20
2019-03-26T03:30:51.341Z,5.10
2019-03-26T03:33:21.677Z,5.00
2019-03-26T03:35:53.176Z,4.90
2019-03-26T03:38:23.629Z,4.80
2019-03-26T03:40:53.968Z,4.80
2019-03-26T03:43:24.302Z,4.70
2019-03-26T03:45:55.366Z,4.60
2019-03-26T03:48:25.896Z,4.50
2019-03-26T03:50:57.166Z,4.40
2019-03-26T03:53:27.805Z,4.40
2019-03-26T03:56:01.720Z,4.50
2019-03-26T03:58:35.896Z,4.40
2019-03-26T04:01:06.241Z,4.40
2019-03-26T04:03:36.819Z,4.30
2019-03-26T04:06:09.561Z,4.30
2019-03-26T04:08:39.217Z,4.30
2019-03-26T04:11:10.629Z,4.30
2019-03-26T04:13:40.965Z,4.30
2019-03-26T04:16:11.327Z,4.30
2019-03-26T04:18:41.660Z,4.30
2019-03-26T04:21:11.998Z,4.20
2019-03-26T04:23:42.325Z,4.20
2019-03-26T04:26:12.653Z,4.20
2019-03-26T04:28:43.055Z,4.20
2019-03-26T04:31:13.407Z,4.20
2019-03-26T04:33:43.739Z,4.20
2019-03-26T04:36:25.301Z,4.20
2019-03-26T04:38:46.108Z,4.20
2019-03-26T04:41:16.437Z,4.30
2019-03-26T04:43:46.771Z,4.30
2019-03-26T04:46:17.111Z,4.40
2019-03-26T04:48:47.522Z,4.40
2019-03-26T04:51:17.844Z,4.50
2019-03-26T04:53:48.196Z,4.60
2019-03-26T04:56:18.525Z,4.70
2019-03-26T04:58:48.862Z,4.70
2019-03-26T05:01:19.196Z,4.80
2019-03-26T05:03:49.604Z,4.90
2019-03-26T05:06:19.957Z,4.90
2019-03-26T05:08:50.288Z,4.90
2019-03-26T05:11:20.606Z,5.00
2019-03-26T05:13:50.947Z,5.00
2019-03-26T05:16:21.269Z,5.00
2019-03-26T05:18:51.610Z,5.10
2019-03-26T05:21:21.934Z,5.10
2019-03-26T05:23:52.269Z,5.10
2019-03-26T05:26:22.594Z,5.10
2019-03-26T05:28:52.929Z,5.10
2019-03-26T05:31:23.266Z,5.10
2019-03-26T05:33:53.598Z,5.00
2019-03-26T05:36:23.929Z,5.00
2019-03-26T05:38:54.254Z,5.00
2019-03-26T05:41:24.580Z,5.00
2019-03-26T05:43:54.910Z,4.90
2019-03-26T05:46:26.150Z,4.90
2019-03-26T05:48:56.471Z,4.90
2019-03-26T05:51:26.812Z,4.80
2019-03-26T05:53:57.146Z,4.80
2019-03-26T05:56:30.428Z,4.80
2019-03-26T05:58:59.515Z,4.80
2019-03-26T06:01:29.866Z,4.70
2019-03-26T06:04:00.200Z,4.80
2019-03-26T06:06:30.545Z,4.80
2019-03-26T06:09:00.871Z,4.80
2019-03-26T06:11:32.981Z,4.90
2019-03-26T06:14:03.320Z,5.10
2019-03-26T06:16:38.581Z,5.20
2019-03-26T06:19:05.675Z,5.30
2019-03-26T06:21:36.032Z,5.50
2019-03-26T06:24:06.449Z,5.60
2019-03-26T06:26:36.791Z,5.70
2019-03-26T06:29:07.141Z,5.80
2019-03-26T06:31:37.464Z,5.90
2019-03-26T06:34:10.404Z,6.00
2019-03-26T06:36:39.841Z,6.10
2019-03-26T06:39:10.208Z,6.20
2019-03-26T06:41:40.536Z,6.30
2019-03-26T06:44:10.996Z,6.40
2019-03-26T06:46:41.328Z,6.50
2019-03-26T06:49:11.671Z,6.60
2019-03-26T06:51:42.001Z,6.70
2019-03-26T06:54:12.342Z,6.80
2019-03-26T06:56:55.007Z,6.90
2019-03-26T06:59:25.352Z,7.10
2019-03-26T07:01:56.361Z,7.30
2019-03-26T07:04:26.721Z,7.40
2019-03-26T07:06:57.914Z,7.40
2019-03-26T07:09:28.489Z,7.50
2019-03-26T07:11:58.818Z,7.50
2019-03-26T07:14:29.166Z,7.60
2019-03-26T07:16:59.567Z,7.70
2019-03-26T07:19:29.919Z,7.90
2019-03-26T07:22:01.326Z,8.00
2019-03-26T07:24:31.681Z,8.20
2019-03-26T07:27:02.085Z,8.40
2019-03-26T07:29:32.427Z,8.40
2019-03-26T07:32:03.836Z,8.40
2019-03-26T07:34:36.785Z,8.50
2019-03-26T07:37:07.265Z,8.70
2019-03-26T07:39:39.150Z,8.80
2019-03-26T07:42:09.570Z,9.10
2019-03-26T07:44:39.905Z,9.30
2019-03-26T07:47:10.274Z,9.50
2019-03-26T07:49:41.658Z,9.70
2019-03-26T07:52:11.983Z,9.80
2019-03-26T07:54:42.347Z,9.90
2019-03-26T07:57:12.674Z,9.90
2019-03-26T07:59:43.039Z,10.00
2019-03-26T08:02:13.375Z,10.00
2019-03-26T08:04:46.744Z,10.10
2019-03-26T08:07:17.087Z,10.30
2019-03-26T08:09:48.402Z,10.30
2019-03-26T08:12:18.743Z,10.40
2019-03-26T08:14:50.184Z,10.40
2019-03-26T08:17:20.537Z,10.50
2019-03-26T08:19:50.880Z,10.50
2019-03-26T08:22:21.210Z,10.50
2019-03-26T08:24:51.560Z,10.50
2019-03-26T08:27:22.695Z,10.50
2019-03-26T08:29:53.040Z,10.40
2019-03-26T08:32:23.369Z,10.40
2019-03-26T08:34:53.726Z,10.40
2019-03-26T08:37:24.063Z,10.40
2019-03-26T08:39:54.423Z,10.30
2019-03-26T08:42:24.826Z,10.30
2019-03-26T08:44:55.185Z,10.20
2019-03-26T08:47:25.531Z,10.20
2019-03-26T08:49:55.880Z,10.30
2019-03-26T08:52:26.222Z,10.40
2019-03-26T08:54:56.565Z,10.40
2019-03-26T08:57:28.469Z,10.40
2019-03-26T08:59:58.796Z,10.40
2019-03-26T09:02:29.132Z,10.40
2019-03-26T09:04:59.472Z,10.30
2019-03-26T09:07:29.814Z,10.30
2019-03-26T09:10:00.410Z,10.30
2019-03-26T09:12:30.804Z,10.30
2019-03-26T09:15:01.145Z,10.40
2019-03-26T09:17:31.484Z,10.40
2019-03-26T09:20:01.826Z,10.40
2019-03-26T09:22:33.142Z,10.40
2019-03-26T09:25:04.053Z,10.50
2019-03-26T09:27:35.368Z,10.60
2019-03-26T09:30:13.263Z,10.50
2019-03-26T09:32:43.592Z,10.50
2019-03-26T09:35:14.774Z,10.50
2019-03-26T09:37:45.116Z,10.60
2019-03-26T09:40:15.597Z,10.70
2019-03-26T09:42:46.918Z,10.80
2019-03-26T09:45:17.326Z,10.90
2019-03-26T09:47:47.669Z,10.90
2019-03-26T09:50:22.613Z,10.90
2019-03-26T09:52:52.953Z,10.80
2019-03-26T09:55:23.291Z,10.80
2019-03-26T09:57:53.629Z,11.00
2019-03-26T10:00:24.024Z,11.20
2019-03-26T10:02:54.371Z,11.40
2019-03-26T10:05:24.706Z,11.40
2019-03-26T10:07:55.047Z,11.50
2019-03-26T10:10:25.383Z,11.50
2019-03-26T10:12:55.721Z,11.60
2019-03-26T10:15:26.062Z,11.70
2019-03-26T10:17:56.398Z,11.80
2019-03-26T10:20:27.784Z,11.80
2019-03-26T10:22:58.601Z,11.80
2019-03-26T10:25:28.931Z,11.80
2019-03-26T10:27:59.278Z,11.90
2019-03-26T10:30:35.470Z,11.90
2019-03-26T10:33:07.014Z,11.90
2019-03-26T10:35:37.420Z,12.00
2019-03-26T10:38:08.092Z,11.90
2019-03-26T10:40:41.161Z,11.80
2019-03-26T10:43:11.498Z,11.70
2019-03-26T10:45:41.836Z,11.70
2019-03-26T10:48:12.178Z,11.60
2019-03-26T10:50:42.521Z,11.60
2019-03-26T10:53:12.866Z,11.60
2019-03-26T10:55:43.203Z,11.50
2019-03-26T10:58:13.543Z,11.40
2019-03-26T11:00:43.881Z,11.40
2019-03-26T11:03:14.227Z,11.30
2019-03-26T11:05:44.566Z,11.20
2019-03-26T11:08:15.978Z,11.30
2019-03-26T11:10:46.319Z,11.30
2019-03-26T11:13:16.657Z,11.40
2019-03-26T11:15:47.005Z,11.40
2019-03-26T11:18:17.345Z,11.40
2019-03-26T11:21:01.337Z,11.50
2019-03-26T11:23:19.700Z,11.50
2019-03-26T11:25:50.046Z,11.50
2019-03-26T11:28:20.385Z,11.50
2019-03-26T11:30:53.379Z,11.50
2019-03-26T11:33:23.723Z,11.50
2019-03-26T11:35:54.063Z,11.50
2019-03-26T11:38:24.427Z,11.70
2019-03-26T11:40:54.753Z,11.70
2019-03-26T11:43:25.083Z,11.80
2019-03-26T11:45:55.487Z,11.90
2019-03-26T11:48:25.834Z,12.00
2019-03-26T11:50:56.359Z,12.00
2019-03-26T11:53:26.693Z,12.00
2019-03-26T11:55:57.067Z,11.90
2019-03-26T11:58:30.761Z,12.00
2019-03-26T12:00:59.426Z,12.00
2019-03-26T12:03:29.775Z,12.00
2019-03-26T12:06:00.123Z,12.00
2019-03-26T12:08:30.527Z,11.80
2019-03-26T12:11:00.874Z,11.80
2019-03-26T12:13:31.215Z,11.80
2019-03-26T12:16:01.561Z,11.80
2019-03-26T12:18:31.892Z,11.90
2019-03-26T12:21:02.236Z,12.10
2019-03-26T12:23:32.578Z,12.20
2019-03-26T12:26:03.003Z,12.40
2019-03-26T12:28:33.337Z,12.50
2019-03-26T12:31:03.675Z,12.60
2019-03-26T12:33:34.027Z,12.80
2019-03-26T12:36:04.372Z,13.00
2019-03-26T12:38:34.704Z,13.10
2019-03-26T12:41:05.187Z,13.20
2019-03-26T12:43:35.536Z,13.50
2019-03-26T12:46:05.962Z,13.70
2019-03-26T12:48:36.297Z,13.80
2019-03-26T12:51:06.630Z,13.90
2019-03-26T12:53:36.969Z,13.80
2019-03-26T12:56:07.312Z,13.80
2019-03-26T12:58:37.656Z,13.90
2019-03-26T13:01:07.989Z,13.90
2019-03-26T13:03:38.342Z,14.00
2019-03-26T13:06:08.680Z,14.00
2019-03-26T13:08:39.021Z,13.80
2019-03-26T13:11:09.351Z,13.80
2019-03-26T13:13:39.695Z,13.70
2019-03-26T13:16:10.035Z,13.70
2019-03-26T13:18:40.392Z,13.60
2019-03-26T13:21:10.733Z,13.60
2019-03-26T13:23:41.061Z,13.60
2019-03-26T13:26:11.466Z,13.50
2019-03-26T13:28:41.809Z,13.40
2019-03-26T13:31:12.146Z,13.50
2019-03-26T13:33:42.484Z,13.50
2019-03-26T13:36:12.828Z,13.40
2019-03-26T13:38:43.175Z,13.40
2019-03-26T13:41:13.515Z,13.30
2019-03-26T13:43:43.851Z,13.30
2019-03-26T13:46:15.184Z,13.40
2019-03-26T13:48:45.516Z,13.40
2019-03-26T13:51:15.859Z,13.50
2019-03-26T13:53:46.192Z,13.30
2019-03-26T13:56:17.507Z,13.30
2019-03-26T13:58:47.855Z,13.40
2019-03-26T14:01:18.199Z,13.50
2019-03-26T14:03:48.540Z,13.40
2019-03-26T14:06:18.896Z,13.30
2019-03-26T14:08:49.235Z,13.20
2019-03-26T14:11:19.586Z,13.10
2019-03-26T14:13:49.926Z,13.20
2019-03-26T14:16:20.261Z,13.20
2019-03-26T14:18:50.606Z,13.20
2019-03-26T14:21:20.950Z,13.00
2019-03-26T14:23:51.298Z,12.90
2019-03-26T14:26:21.684Z,12.90
2019-03-26T14:28:52.024Z,12.90
2019-03-26T14:31:22.368Z,12.90
2019-03-26T14:33:52.734Z,12.90
2019-03-26T14:36:24.220Z,12.90
2019-03-26T14:38:54.556Z,12.90
2019-03-26T14:41:24.901Z,12.90
2019-03-26T14:43:55.235Z,12.90
2019-03-26T14:46:25.575Z,12.80
2019-03-26T14:48:56.981Z,12.80
2019-03-26T14:51:27.327Z,12.90
2019-03-26T14:53:57.662Z,12.80
2019-03-26T14:56:28.002Z,12.80
2019-03-26T14:58:58.341Z,12.90
2019-03-26T15:01:28.677Z,12.90
2019-03-26T15:03:59.019Z,12.80
2019-03-26T15:06:29.373Z,12.80
2019-03-26T15:08:59.716Z,12.80
2019-03-26T15:11:30.052Z,12.80
2019-03-26T15:14:00.401Z,12.70
2019-03-26T15:16:30.750Z,12.60
2019-03-26T15:19:01.093Z,12.60
2019-03-26T15:21:31.435Z,12.50
2019-03-26T15:24:01.785Z,12.40
2019-03-26T15:26:32.132Z,12.40
2019-03-26T15:29:02.464Z,12.30
2019-03-26T15:31:32.814Z,12.20
2019-03-26T15:34:03.165Z,12.10
2019-03-26T15:36:33.519Z,12.10
2019-03-26T15:39:05.399Z,12.00
2019-03-26T15:41:35.813Z,11.90
2019-03-26T15:44:06.162Z,11.90
2019-03-26T15:46:36.790Z,11.90
2019-03-26T15:49:07.157Z,11.90
2019-03-26T15:51:37.481Z,11.90
2019-03-26T15:54:07.824Z,11.80
2019-03-26T15:56:38.170Z,11.70
2019-03-26T15:59:08.509Z,11.60
2019-03-26T16:01:38.854Z,11.50
2019-03-26T16:04:09.199Z,11.50
2019-03-26T16:06:39.541Z,11.40
2019-03-26T16:09:09.944Z,11.40
2019-03-26T16:11:40.301Z,11.40
2019-03-26T16:14:10.634Z,11.40
2019-03-26T16:16:40.998Z,11.40
2019-03-26T16:19:12.355Z,11.40
2019-03-26T16:21:42.790Z,11.40
2019-03-26T16:24:13.382Z,11.40
2019-03-26T16:26:43.721Z,11.30
2019-03-26T16:29:14.071Z,11.30
2019-03-26T16:31:44.439Z,11.30
2019-03-26T16:34:14.752Z,11.30
2019-03-26T16:36:58.525Z,11.30
2019-03-26T16:39:17.423Z,11.20
2019-03-26T16:41:49.220Z,11.10
2019-03-26T16:44:20.248Z,11.10
2019-03-26T16:46:50.590Z,11.20
2019-03-26T16:49:20.941Z,11.20
2019-03-26T16:51:51.291Z,11.20
2019-03-26T16:54:21.646Z,11.20
2019-03-26T16:56:51.978Z,11.20
2019-03-26T16:59:22.409Z,11.20
2019-03-26T17:01:52.745Z,11.10
2019-03-26T17:04:23.101Z,11.00
2019-03-26T17:06:53.518Z,11.00
2019-03-26T17:09:23.867Z,11.00
2019-03-26T17:12:03.120Z,10.90
2019-03-26T17:14:26.354Z,10.90
2019-03-26T17:16:56.667Z,10.80
2019-03-26T17:19:27.009Z,10.80
2019-03-26T17:21:57.350Z,10.70
2019-03-26T17:24:27.699Z,10.70
2019-03-26T17:26:58.038Z,10.70
2019-03-26T17:29:28.461Z,10.60
2019-03-26T17:31:58.797Z,10.50
2019-03-26T17:34:29.139Z,10.40
2019-03-26T17:36:59.482Z,10.40
2019-03-26T17:39:31.621Z,10.30
2019-03-26T17:42:01.863Z,10.30
2019-03-26T17:44:32.210Z,10.20
2019-03-26T17:47:02.842Z,10.20
2019-03-26T17:49:33.198Z,10.20
2019-03-26T17:52:03.544Z,10.10
2019-03-26T17:54:33.908Z,10.10
2019-03-26T17:57:04.238Z,10.00
2019-03-26T17:59:34.676Z,9.90
2019-03-26T18:02:05.284Z,9.80
2019-03-26T18:04:35.698Z,9.80
2019-03-26T18:07:06.041Z,9.80
2019-03-26T18:09:36.377Z,9.80
2019-03-26T18:12:06.707Z,9.70
2019-03-26T18:14:37.045Z,9.70
2019-03-26T18:17:07.389Z,9.60
2019-03-26T18:19:37.728Z,9.60
2019-03-26T18:22:08.061Z,9.50
2019-03-26T18:24:38.409Z,9.50
2019-03-26T18:27:08.758Z,9.40
2019-03-26T18:29:39.109Z,9.30
2019-03-26T18:32:09.451Z,9.30
2019-03-26T18:34:39.801Z,9.20
2019-03-26T18:37:10.138Z,9.20
2019-03-26T18:39:40.482Z,9.10
2019-03-26T18:42:10.818Z,9.10
2019-03-26T18:44:41.161Z,9.10
2019-03-26T18:47:11.507Z,9.10
2019-03-26T18:49:43.491Z,9.10
2019-03-26T18:52:13.837Z,9.00
2019-03-26T18:54:45.818Z,9.00
2019-03-26T18:57:16.153Z,9.00
2019-03-26T18:59:46.485Z,9.00
2019-03-26T19:02:17.391Z,9.00
2019-03-26T19:04:47.746Z,8.90
2019-03-26T19:07:18.081Z,8.90
2019-03-26T19:09:49.393Z,9.00
2019-03-26T19:12:19.728Z,8.90
2019-03-26T19:14:50.130Z,8.90
2019-03-26T19:17:20.533Z,8.90
2019-03-26T19:19:50.867Z,8.90
2019-03-26T19:22:21.215Z,8.90
2019-03-26T19:24:51.550Z,8.90
2019-03-26T19:27:21.889Z,8.90
2019-03-26T19:29:52.225Z,8.90
2019-03-26T19:32:22.570Z,8.90
2019-03-26T19:34:52.909Z,8.90
2019-03-26T19:37:23.250Z,8.90
2019-03-26T19:39:53.607Z,8.90
2019-03-26T19:42:23.944Z,8.90
2019-03-26T19:44:54.279Z,8.90
2019-03-26T19:47:24.630Z,8.90
2019-03-26T19:52:49.509Z,8.80
2019-03-26T19:55:19.842Z,8.80
2019-03-26T19:57:50.205Z,8.80
2019-03-26T20:00:21.044Z,8.80
2019-03-26T20:02:51.386Z,8.80
2019-03-26T20:05:21.721Z,8.80
2019-03-26T20:07:52.060Z,8.80
2019-03-26T20:10:23.350Z,8.80
2019-03-26T20:12:53.633Z,8.80
2019-03-26T20:15:24.272Z,8.80
2019-03-26T20:17:54.607Z,8.70
2019-03-26T20:20:25.601Z,8.70
2019-03-26T20:22:55.942Z,8.70
2019-03-26T20:25:26.545Z,8.70
2019-03-26T20:27:56.890Z,8.70
2019-03-26T20:30:27.388Z,8.70
2019-03-26T20:33:17.066Z,8.70
2019-03-26T20:35:47.703Z,8.60
2019-03-26T20:38:18.042Z,8.70
2019-03-26T20:40:48.372Z,8.70
2019-03-26T20:43:18.707Z,8.60
2019-03-26T20:45:49.045Z,8.60
2019-03-26T20:48:20.360Z,8.60
2019-03-26T20:50:52.738Z,8.60
2019-03-26T20:53:22.738Z,8.60
2019-03-26T20:55:54.871Z,8.50
2019-03-26T20:58:25.323Z,8.60
2019-03-26T21:00:55.675Z,8.60
2019-03-26T21:03:26.011Z,8.60
2019-03-26T21:05:56.345Z,8.50
2019-03-26T21:08:27.659Z,8.50
2019-03-26T21:10:58.011Z,8.50
2019-03-26T21:13:28.347Z,8.50
2019-03-26T21:15:59.755Z,8.60
2019-03-26T21:18:30.158Z,8.50
2019-03-26T21:21:00.506Z,8.50
2019-03-26T21:23:30.863Z,8.50
2019-03-26T21:26:01.209Z,8.60
2019-03-26T21:28:31.550Z,8.50
2019-03-26T21:31:01.873Z,8.50
2019-03-26T21:33:32.210Z,8.50
2019-03-26T21:36:02.540Z,8.50
2019-03-26T21:38:32.892Z,8.50
2019-03-26T21:41:03.481Z,8.50
2019-03-26T21:43:33.819Z,8.50
2019-03-26T21:46:04.220Z,8.50
2019-03-26T21:48:34.563Z,8.40
2019-03-26T21:51:10.768Z,8.40
2019-03-26T21:53:41.114Z,8.30
2019-03-26T21:56:11.454Z,8.30
2019-03-26T21:58:41.793Z,8.20
2019-03-26T22:01:12.142Z,8.20
2019-03-26T22:03:42.481Z,8.10
2019-03-26T22:06:12.815Z,8.10
2019-03-26T22:08:43.153Z,8.10
2019-03-26T22:11:13.485Z,8.10
2019-03-26T22:13:43.821Z,8.10
2019-03-26T22:16:14.152Z,8.10
2019-03-26T22:18:44.489Z,8.10
2019-03-26T22:21:14.815Z,8.10
2019-03-26T22:23:46.231Z,8.10
2019-03-26T22:26:16.565Z,8.10
2019-03-26T22:28:47.249Z,8.10
2019-03-26T22:31:17.582Z,8.10
2019-03-26T22:33:47.930Z,8.10
2019-03-26T22:36:18.260Z,8.10
2019-03-26T22:38:48.602Z,8.10
2019-03-26T22:41:18.933Z,8.10
2019-03-26T22:43:49.274Z,8.10
2019-03-26T22:46:20.540Z,8.10
2019-03-26T22:48:50.879Z,8.10
2019-03-26T22:51:21.209Z,8.10
2019-03-26T22:53:51.545Z,8.10
2019-03-26T22:56:21.887Z,8.10
2019-03-26T22:58:52.231Z,8.10
2019-03-26T23:01:22.604Z,8.10
2019-03-26T23:03:52.942Z,8.10
2019-03-26T23:06:23.460Z,8.10
2019-03-26T23:08:53.795Z,8.10
2019-03-26T23:11:24.127Z,8.20
2019-03-26T23:13:54.479Z,8.10
2019-03-26T23:16:24.805Z,8.10
2019-03-26T23:18:55.154Z,8.10
2019-03-26T23:21:25.486Z,8.10
2019-03-26T23:23:55.815Z,8.20
2019-03-26T23:26:26.152Z,8.20
2019-03-26T23:28:56.503Z,8.10
2019-03-26T23:31:26.832Z,8.20
2019-03-26T23:33:57.173Z,8.10
2019-03-26T23:36:27.498Z,8.20
2019-03-26T23:38:57.846Z,8.20
2019-03-26T23:41:28.187Z,8.20
2019-03-26T23:43:58.523Z,8.10
2019-03-26T23:46:28.850Z,8.10
2019-03-26T23:48:59.190Z,8.10
2019-03-26T23:51:29.515Z,8.10
2019-03-26T23:53:59.866Z,8.00
2019-03-26T23:56:30.192Z,8.00
2019-03-26T23:59:00.534Z,8.00
